createdAt,value
2017-07-16T00:02:48.823Z,0
2017-07-16T00:12:48.727Z,0
2017-07-16T00:22:49.440Z,0
2017-07-16T00:32:48.922Z,0
2017-07-16T00:42:48.929Z,0
2017-07-16T00:52:48.814Z,0
2017-07-16T01:02:48.719Z,0
2017-07-16T01:12:48.836Z,0
2017-07-16T01:22:48.838Z,0
2017-07-16T01:32:48.787Z,0
2017-07-16T01:42:48.768Z,0
2017-07-16T01:52:48.699Z,0
2017-07-16T02:02:48.752Z,0
2017-07-16T02:12:48.773Z,0
2017-07-16T02:22:48.824Z,0
2017-07-16T02:32:48.759Z,0
2017-07-16T02:42:48.714Z,0
2017-07-16T02:52:48.721Z,0
2017-07-16T03:02:48.795Z,0
2017-07-16T03:12:48.731Z,0
2017-07-16T03:22:48.805Z,0
2017-07-16T03:32:48.773Z,0
2017-07-16T03:42:48.699Z,0
2017-07-16T03:52:48.801Z,5
2017-07-16T04:02:48.711Z,10
2017-07-16T04:12:48.716Z,15
2017-07-16T04:22:48.709Z,15
2017-07-16T04:32:48.721Z,30
2017-07-16T04:42:48.711Z,45
2017-07-16T04:52:48.726Z,35
2017-07-16T05:02:48.732Z,35
2017-07-16T05:12:48.772Z,40
2017-07-16T05:22:48.729Z,40
2017-07-16T05:32:48.711Z,30
2017-07-16T05:42:48.787Z,45
2017-07-16T05:52:48.759Z,70
2017-07-16T06:02:48.728Z,75
2017-07-16T06:12:48.751Z,65
2017-07-16T06:22:48.728Z,75
2017-07-16T06:32:48.785Z,95
2017-07-16T06:42:48.733Z,90
2017-07-16T06:52:48.751Z,90
2017-07-16T07:02:48.738Z,95
2017-07-16T07:12:48.748Z,230
2017-07-16T07:22:48.802Z,80
2017-07-16T07:32:48.734Z,65
2017-07-16T07:42:48.821Z,95
2017-07-16T07:52:48.754Z,110
2017-07-16T08:02:48.743Z,140
2017-07-16T08:12:48.752Z,140
2017-07-16T08:22:48.737Z,145
2017-07-16T08:32:48.743Z,200
2017-07-16T08:42:48.760Z,135
2017-07-16T08:52:48.781Z,135
2017-07-16T09:02:48.775Z,170
2017-07-16T09:12:48.764Z,150
2017-07-16T09:22:48.762Z,130
2017-07-16T09:32:48.775Z,165
2017-07-16T09:42:48.973Z,215
2017-07-16T09:53:09.782Z,245
2017-07-16T10:03:03.636Z,380
2017-07-16T10:12:48.789Z,355
2017-07-16T10:22:57.259Z,385
2017-07-16T10:32:48.784Z,325
2017-07-16T10:42:48.825Z,260
2017-07-16T10:53:10.894Z,235
2017-07-16T11:02:48.771Z,140
2017-07-16T11:12:48.815Z,295
2017-07-16T11:22:49.188Z,185
2017-07-16T11:32:48.828Z,160
2017-07-16T11:42:48.923Z,205
2017-07-16T11:52:48.949Z,230
2017-07-16T12:12:48.908Z,330
2017-07-16T12:22:48.808Z,320
2017-07-16T12:32:49.297Z,220
2017-07-16T12:42:48.899Z,310
2017-07-16T12:52:48.925Z,135
2017-07-16T13:02:48.858Z,115
2017-07-16T13:12:49.270Z,160
2017-07-16T13:22:48.974Z,140
2017-07-16T13:32:49.027Z,150
2017-07-16T13:42:48.841Z,130
2017-07-16T13:52:48.827Z,110
2017-07-16T14:02:48.913Z,120
2017-07-16T14:12:48.967Z,230
2017-07-16T14:22:48.947Z,215
2017-07-16T14:32:48.834Z,250
2017-07-16T14:42:48.860Z,220
2017-07-16T14:52:48.954Z,205
2017-07-16T15:02:48.865Z,205
2017-07-16T15:12:48.809Z,155
2017-07-16T15:22:48.828Z,135
2017-07-16T15:32:48.840Z,140
2017-07-16T15:42:48.846Z,90
2017-07-16T15:52:48.875Z,80
2017-07-16T16:02:48.920Z,105
2017-07-16T16:12:48.925Z,60
2017-07-16T16:22:48.884Z,55
2017-07-16T16:32:48.856Z,45
2017-07-16T16:42:48.861Z,55
2017-07-16T16:52:48.876Z,15
2017-07-16T17:02:48.864Z,20
2017-07-16T17:12:48.875Z,45
2017-07-16T17:22:48.893Z,50
2017-07-16T17:32:49.669Z,65
2017-07-16T17:42:49.097Z,45
2017-07-16T17:52:48.879Z,50
2017-07-16T18:02:48.870Z,60
2017-07-16T18:12:48.968Z,35
2017-07-16T18:22:48.864Z,45
2017-07-16T18:32:48.867Z,30
2017-07-16T18:42:48.871Z,5
2017-07-16T18:52:49.522Z,5
2017-07-16T19:02:49.087Z,0
2017-07-16T19:12:49.121Z,5
2017-07-16T19:22:49.233Z,5
2017-07-16T19:32:49.042Z,0
2017-07-16T19:42:49.003Z,0
2017-07-16T19:52:49.026Z,0
2017-07-16T20:02:49.042Z,0
2017-07-16T20:12:49.191Z,0
2017-07-16T20:22:49.094Z,0
2017-07-16T20:32:49.019Z,0
2017-07-16T20:42:50.135Z,0
2017-07-16T20:52:48.975Z,0
2017-07-16T21:02:48.917Z,0
2017-07-16T21:12:49.903Z,0
2017-07-16T21:22:48.871Z,0
2017-07-16T21:32:49.072Z,0
2017-07-16T21:42:48.911Z,0
2017-07-16T21:52:48.987Z,0
2017-07-16T22:02:48.939Z,0
2017-07-16T22:12:48.915Z,0
2017-07-16T22:22:48.888Z,0
2017-07-16T22:32:48.887Z,0
2017-07-16T22:42:48.874Z,0
2017-07-16T22:52:48.886Z,0
2017-07-16T23:02:48.888Z,0
2017-07-16T23:12:48.991Z,0
2017-07-16T23:22:48.889Z,0
2017-07-16T23:32:49.008Z,0
2017-07-16T23:42:48.972Z,0
2017-07-16T23:52:48.869Z,0
